createdAt,value
2022-12-14T00:01:40.668Z,-4.64
2022-12-14T00:04:07.348Z,-4.57
2022-12-14T00:06:34.574Z,-4.64
2022-12-14T00:09:04.227Z,-4.83
2022-12-14T00:11:33.572Z,-4.72
2022-12-14T00:14:02.395Z,-4.77
2022-12-14T00:16:31.565Z,-4.77
2022-12-14T00:19:00.765Z,-4.73
2022-12-14T00:21:28.687Z,-4.67
2022-12-14T00:23:56.004Z,-4.71
2022-12-14T00:26:25.294Z,-4.73
2022-12-14T00:28:53.789Z,-4.60
2022-12-14T00:31:21.901Z,-4.55
2022-12-14T00:33:48.797Z,-4.55
2022-12-14T00:36:15.539Z,-4.63
2022-12-14T00:38:42.861Z,-4.73
2022-12-14T00:41:10.801Z,-4.74
2022-12-14T00:43:37.948Z,-4.79
2022-12-14T00:46:05.687Z,-4.65
2022-12-14T00:48:33.196Z,-4.79
2022-12-14T00:51:00.269Z,-4.72
2022-12-14T00:53:27.110Z,-4.89
2022-12-14T00:55:54.587Z,-4.94
2022-12-14T00:58:23.584Z,-5.40
2022-12-14T01:01:06.674Z,-5.48
2022-12-14T01:03:34.787Z,-5.39
2022-12-14T01:06:02.034Z,-5.44
2022-12-14T01:08:35.880Z,-5.14
2022-12-14T01:11:12.728Z,-5.10
2022-12-14T01:13:40.737Z,-5.22
2022-12-14T01:16:14.987Z,-5.21
2022-12-14T01:18:43.445Z,-5.39
2022-12-14T01:21:30.560Z,-5.55
2022-12-14T01:24:02.311Z,-5.38
2022-12-14T01:26:30.505Z,-5.42
2022-12-14T01:28:58.912Z,-5.35
2022-12-14T01:31:33.999Z,-5.32
2022-12-14T01:34:01.115Z,-5.37
2022-12-14T01:37:00.456Z,-5.39
2022-12-14T01:39:25.431Z,-5.31
2022-12-14T01:41:53.060Z,-5.26
2022-12-14T01:44:19.788Z,-5.47
2022-12-14T01:47:08.790Z,-5.39
2022-12-14T01:50:08.423Z,-5.49
2022-12-14T01:52:44.225Z,-5.45
2022-12-14T01:55:11.117Z,-5.59
2022-12-14T01:57:47.271Z,-5.53
2022-12-14T02:00:14.795Z,-5.53
2022-12-14T02:02:48.454Z,-5.57
2022-12-14T02:05:18.505Z,-5.61
2022-12-14T02:07:48.959Z,-5.77
2022-12-14T02:10:16.681Z,-5.66
2022-12-14T02:12:48.624Z,-5.76
2022-12-14T02:15:15.946Z,-5.65
2022-12-14T02:17:47.251Z,-5.56
2022-12-14T02:20:16.298Z,-5.67
2022-12-14T02:23:20.396Z,-5.59
2022-12-14T02:26:07.562Z,-5.69
2022-12-14T02:29:01.533Z,-5.77
2022-12-14T02:31:52.838Z,-5.72
2022-12-14T02:34:40.149Z,-5.62
2022-12-14T02:37:34.663Z,-5.78
2022-12-14T02:40:27.894Z,-5.87
2022-12-14T02:43:03.987Z,-5.91
2022-12-14T02:45:41.563Z,-5.84
2022-12-14T02:48:20.099Z,-5.93
2022-12-14T02:51:06.489Z,-5.83
2022-12-14T02:53:48.706Z,-5.88
2022-12-14T02:56:22.639Z,-5.98
2022-12-14T02:58:51.095Z,-5.82
2022-12-14T03:01:25.573Z,-5.88
2022-12-14T03:03:52.418Z,-5.86
2022-12-14T03:06:27.569Z,-5.83
2022-12-14T03:09:01.134Z,-5.93
2022-12-14T03:11:41.400Z,-6.06
2022-12-14T03:14:18.149Z,-6.08
2022-12-14T03:16:55.031Z,-6.05
2022-12-14T03:19:34.465Z,-6.22
2022-12-14T03:22:09.635Z,-6.22
2022-12-14T03:27:51.774Z,-6.02
2022-12-14T03:30:37.205Z,-6.30
2022-12-14T03:33:13.608Z,-6.03
2022-12-14T03:35:50.275Z,-6.19
2022-12-14T03:38:28.975Z,-6.09
2022-12-14T03:41:10.019Z,-6.13
2022-12-14T03:43:59.311Z,-6.21
2022-12-14T03:46:47.658Z,-6.31
2022-12-14T03:49:22.784Z,-6.15
2022-12-14T03:52:05.766Z,-6.20
2022-12-14T03:54:47.768Z,-6.14
2022-12-14T03:57:37.568Z,-6.07
2022-12-14T04:00:12.057Z,-6.17
2022-12-14T04:03:09.647Z,-6.19
2022-12-14T04:05:49.194Z,-6.26
2022-12-14T04:08:19.050Z,-6.03
2022-12-14T04:11:08.943Z,-6.08
2022-12-14T04:14:00.191Z,-6.05
2022-12-14T04:16:57.820Z,-6.06
2022-12-14T04:19:49.252Z,-6.13
2022-12-14T04:22:23.012Z,-6.02
2022-12-14T04:25:15.590Z,-6.09
2022-12-14T04:27:50.839Z,-6.10
2022-12-14T04:30:17.968Z,-6.10
2022-12-14T04:32:48.435Z,-6.14
2022-12-14T04:35:35.665Z,-6.07
2022-12-14T04:38:14.506Z,-6.03
2022-12-14T04:40:48.639Z,-6.12
2022-12-14T04:43:18.738Z,-6.14
2022-12-14T04:46:06.822Z,-6.12
2022-12-14T04:48:41.833Z,-6.09
2022-12-14T04:51:15.239Z,-6.16
2022-12-14T04:53:45.482Z,-6.02
2022-12-14T04:56:30.382Z,-6.07
2022-12-14T04:58:57.282Z,-6.16
2022-12-14T05:01:29.807Z,-6.12
2022-12-14T05:04:12.697Z,-6.15
2022-12-14T05:07:01.276Z,-6.11
2022-12-14T05:09:33.453Z,-6.10
2022-12-14T05:12:00.185Z,-6.04
2022-12-14T05:14:33.890Z,-6.08
2022-12-14T05:17:08.403Z,-6.17
2022-12-14T05:19:39.173Z,-6.16
2022-12-14T05:22:08.156Z,-6.15
2022-12-14T05:24:35.276Z,-6.15
2022-12-14T05:27:02.074Z,-6.04
2022-12-14T05:29:28.975Z,-6.21
2022-12-14T05:31:55.805Z,-6.16
2022-12-14T05:34:22.690Z,-6.25
2022-12-14T05:36:49.838Z,-6.18
2022-12-14T05:39:16.704Z,-6.18
2022-12-14T05:41:43.753Z,-6.31
2022-12-14T05:44:10.906Z,-6.19
2022-12-14T05:46:37.611Z,-6.16
2022-12-14T05:49:04.507Z,-6.14
2022-12-14T05:51:31.285Z,-6.05
2022-12-14T05:53:59.155Z,-6.06
2022-12-14T05:56:26.017Z,-5.99
2022-12-14T05:58:52.772Z,-6.10
2022-12-14T06:01:20.007Z,-6.09
2022-12-14T06:03:47.656Z,-6.00
2022-12-14T06:06:14.566Z,-6.04
2022-12-14T06:08:45.145Z,-6.11
2022-12-14T06:11:17.565Z,-6.06
2022-12-14T06:13:45.010Z,-6.00
2022-12-14T06:16:23.177Z,-6.08
2022-12-14T06:18:57.797Z,-6.17
2022-12-14T06:21:29.885Z,-6.14
2022-12-14T06:23:57.420Z,-6.11
2022-12-14T06:26:25.653Z,-6.12
2022-12-14T06:28:52.896Z,-6.01
2022-12-14T06:31:25.586Z,-5.94
2022-12-14T06:33:53.411Z,-6.09
2022-12-14T06:36:28.701Z,-6.03
2022-12-14T06:38:57.098Z,-6.08
2022-12-14T06:41:24.743Z,-6.00
2022-12-14T06:43:53.801Z,-6.02
2022-12-14T06:46:22.629Z,-6.07
2022-12-14T06:48:53.316Z,-5.98
2022-12-14T06:51:21.260Z,-5.96
2022-12-14T06:53:51.873Z,-5.97
2022-12-14T06:56:20.409Z,-5.81
2022-12-14T06:58:47.411Z,-5.98
2022-12-14T07:01:20.974Z,-5.85
2022-12-14T07:03:49.851Z,-5.89
2022-12-14T07:06:16.783Z,-5.70
2022-12-14T07:08:44.071Z,-5.58
2022-12-14T07:11:13.153Z,-5.73
2022-12-14T07:13:40.711Z,-5.75
2022-12-14T07:16:10.992Z,-5.77
2022-12-14T07:18:37.890Z,-5.87
2022-12-14T07:21:10.484Z,-5.83
2022-12-14T07:23:38.786Z,-5.75
2022-12-14T07:26:09.445Z,-5.87
2022-12-14T07:28:37.240Z,-5.86
2022-12-14T07:31:06.109Z,-5.77
2022-12-14T07:33:32.822Z,-5.79
2022-12-14T07:36:06.786Z,-5.87
2022-12-14T07:38:34.930Z,-5.79
2022-12-14T07:41:23.293Z,-5.93
2022-12-14T07:43:51.448Z,-5.92
2022-12-14T07:46:20.878Z,-5.75
2022-12-14T07:48:49.924Z,-5.75
2022-12-14T07:51:18.404Z,-5.60
2022-12-14T07:53:45.397Z,-5.80
2022-12-14T07:56:17.380Z,-5.80
2022-12-14T07:58:44.521Z,-5.76
2022-12-14T08:04:06.389Z,-5.61
2022-12-14T08:06:34.535Z,-5.82
2022-12-14T08:09:01.863Z,-5.74
2022-12-14T08:11:31.174Z,-5.69
2022-12-14T08:14:00.192Z,-5.60
2022-12-14T08:16:27.823Z,-5.78
2022-12-14T08:18:56.978Z,-5.55
2022-12-14T08:21:25.391Z,-5.39
2022-12-14T08:23:53.223Z,-5.44
2022-12-14T08:26:21.335Z,-5.95
2022-12-14T08:28:48.724Z,-5.80
2022-12-14T08:31:18.508Z,-5.56
2022-12-14T08:33:46.940Z,-5.40
2022-12-14T08:36:16.388Z,-5.57
2022-12-14T08:38:43.294Z,-5.38
2022-12-14T08:41:13.442Z,-5.28
2022-12-14T08:43:40.816Z,-5.44
2022-12-14T08:46:09.309Z,-5.48
2022-12-14T08:48:36.399Z,-5.37
2022-12-14T08:51:05.528Z,-5.52
2022-12-14T08:53:32.846Z,-5.60
2022-12-14T08:56:04.902Z,-5.59
2022-12-14T08:58:31.744Z,-5.68
2022-12-14T09:01:04.740Z,-5.31
2022-12-14T09:03:32.425Z,-5.47
2022-12-14T09:06:07.648Z,-5.38
2022-12-14T09:08:35.493Z,-5.49
2022-12-14T09:11:03.556Z,-5.50
2022-12-14T09:13:30.927Z,-5.27
2022-12-14T09:15:59.074Z,-5.26
2022-12-14T09:18:26.333Z,-5.12
2022-12-14T09:20:54.568Z,-5.01
2022-12-14T09:23:23.194Z,-5.12
2022-12-14T09:26:22.958Z,-5.04
2022-12-14T09:28:55.355Z,-4.95
2022-12-14T09:31:24.535Z,-4.98
2022-12-14T09:33:51.731Z,-5.28
2022-12-14T09:36:25.023Z,-5.10
2022-12-14T09:38:55.313Z,-5.17
2022-12-14T09:41:34.008Z,-4.90
2022-12-14T09:44:19.799Z,-4.90
2022-12-14T09:47:04.537Z,-5.00
2022-12-14T09:49:54.814Z,-4.89
2022-12-14T09:52:40.838Z,-4.81
2022-12-14T09:55:23.974Z,-4.67
2022-12-14T09:57:55.589Z,-4.59
2022-12-14T10:00:22.827Z,-4.63
2022-12-14T10:02:50.629Z,-4.75
2022-12-14T10:05:55.301Z,-4.51
2022-12-14T10:08:42.034Z,-4.65
2022-12-14T10:11:11.724Z,-4.39
2022-12-14T10:14:11.410Z,-4.63
2022-12-14T10:16:56.419Z,-4.53
2022-12-14T10:19:39.081Z,-4.62
2022-12-14T10:22:31.439Z,-4.56
2022-12-14T10:25:11.642Z,-4.72
2022-12-14T10:28:09.229Z,-4.68
2022-12-14T10:30:30.165Z,-4.52
2022-12-14T10:33:10.069Z,-4.53
2022-12-14T10:35:45.769Z,-4.60
2022-12-14T10:38:18.208Z,-4.39
2022-12-14T10:40:49.918Z,-4.48
2022-12-14T10:43:39.911Z,-4.42
2022-12-14T10:46:22.520Z,-4.34
2022-12-14T10:49:02.456Z,-4.37
2022-12-14T10:51:49.974Z,-4.38
2022-12-14T10:55:07.135Z,-4.32
2022-12-14T10:57:33.939Z,-4.48
2022-12-14T11:00:09.239Z,-4.40
2022-12-14T11:02:41.531Z,-4.37
2022-12-14T11:05:42.923Z,-4.35
2022-12-14T11:08:09.934Z,-4.45
2022-12-14T11:10:39.809Z,-4.38
2022-12-14T11:13:16.615Z,-4.48
2022-12-14T11:15:53.128Z,-4.44
2022-12-14T11:18:22.666Z,-4.51
2022-12-14T11:20:53.374Z,-4.28
2022-12-14T11:23:47.012Z,-4.32
2022-12-14T11:26:20.984Z,-4.40
2022-12-14T11:28:50.700Z,-4.20
2022-12-14T11:31:20.334Z,-4.25
2022-12-14T11:33:50.727Z,-4.27
2022-12-14T11:36:25.365Z,-4.31
2022-12-14T11:39:19.343Z,-4.21
2022-12-14T11:42:06.889Z,-4.34
2022-12-14T11:44:36.503Z,-4.27
2022-12-14T11:47:12.511Z,-4.27
2022-12-14T11:49:39.130Z,-4.15
2022-12-14T11:52:05.858Z,-4.09
2022-12-14T11:54:34.424Z,-4.24
2022-12-14T11:57:19.460Z,-4.39
2022-12-14T11:59:51.115Z,-4.49
2022-12-14T12:02:32.763Z,-4.57
2022-12-14T12:05:14.616Z,-4.52
2022-12-14T12:08:02.857Z,-4.57
2022-12-14T12:10:49.816Z,-4.66
2022-12-14T12:13:25.925Z,-4.74
2022-12-14T12:16:01.981Z,-4.77
2022-12-14T12:18:42.953Z,-4.66
2022-12-14T12:21:15.738Z,-4.82
2022-12-14T12:24:05.822Z,-4.78
2022-12-14T12:26:49.855Z,-4.80
2022-12-14T12:29:21.485Z,-4.92
2022-12-14T12:32:10.813Z,-4.82
2022-12-14T12:34:55.142Z,-4.65
2022-12-14T12:37:41.057Z,-4.95
2022-12-14T12:40:17.414Z,-4.98
2022-12-14T12:42:50.082Z,-5.05
2022-12-14T12:45:25.879Z,-5.06
2022-12-14T12:48:15.421Z,-4.97
2022-12-14T12:50:57.947Z,-5.14
2022-12-14T12:53:41.875Z,-5.14
2022-12-14T12:56:19.784Z,-5.24
2022-12-14T12:58:52.619Z,-5.29
2022-12-14T13:01:44.117Z,-5.38
2022-12-14T13:04:25.958Z,-5.30
2022-12-14T13:07:03.044Z,-5.31
2022-12-14T13:09:50.160Z,-5.30
2022-12-14T13:12:34.588Z,-5.34
2022-12-14T13:15:03.966Z,-5.44
2022-12-14T13:17:33.541Z,-5.67
2022-12-14T13:20:18.060Z,-5.51
2022-12-14T13:22:47.772Z,-5.44
2022-12-14T13:26:13.411Z,-5.47
2022-12-14T13:29:17.863Z,-5.53
2022-12-14T13:32:38.773Z,-5.51
2022-12-14T13:35:36.438Z,-5.64
2022-12-14T13:38:21.719Z,-5.65
2022-12-14T13:41:31.674Z,-5.77
2022-12-14T13:44:10.176Z,-5.82
2022-12-14T13:46:37.435Z,-5.76
2022-12-14T13:49:08.487Z,-5.93
2022-12-14T13:51:39.987Z,-5.94
2022-12-14T13:54:18.353Z,-5.90
2022-12-14T13:56:46.060Z,-5.89
2022-12-14T13:59:33.373Z,-5.85
2022-12-14T14:02:01.854Z,-5.86
2022-12-14T14:04:33.751Z,-5.86
2022-12-14T14:07:25.358Z,-5.92
2022-12-14T14:09:59.592Z,-6.10
2022-12-14T14:12:31.312Z,-6.21
2022-12-14T14:15:02.952Z,-6.26
2022-12-14T14:17:42.980Z,-6.29
2022-12-14T14:20:40.816Z,-6.37
2022-12-14T14:23:16.493Z,-6.36
2022-12-14T14:25:49.193Z,-6.39
2022-12-14T14:28:22.707Z,-6.40
2022-12-14T14:30:58.626Z,-6.47
2022-12-14T14:33:46.010Z,-6.48
2022-12-14T14:36:33.005Z,-6.48
2022-12-14T14:39:24.432Z,-6.49
2022-12-14T14:41:54.375Z,-6.44
2022-12-14T14:44:59.466Z,-6.29
2022-12-14T14:47:33.315Z,-6.29
2022-12-14T14:50:21.389Z,-6.33
2022-12-14T14:53:00.977Z,-6.26
2022-12-14T14:55:54.052Z,-6.24
2022-12-14T14:58:27.182Z,-6.43
2022-12-14T15:01:08.613Z,-6.43
2022-12-14T15:04:02.171Z,-6.40
2022-12-14T15:06:44.124Z,-6.42
2022-12-14T15:09:13.886Z,-6.51
2022-12-14T15:11:48.864Z,-6.42
2022-12-14T15:14:43.386Z,-6.45
2022-12-14T15:17:21.169Z,-6.51
2022-12-14T15:19:47.871Z,-6.38
2022-12-14T15:22:19.651Z,-6.37
2022-12-14T15:24:50.665Z,-6.29
2022-12-14T15:27:23.053Z,-6.36
2022-12-14T15:29:50.871Z,-6.33
2022-12-14T15:32:21.645Z,-6.36
2022-12-14T15:34:59.852Z,-6.26
2022-12-14T15:37:34.653Z,-6.34
2022-12-14T15:40:08.028Z,-6.22
2022-12-14T15:42:34.907Z,-6.11
2022-12-14T15:45:13.290Z,-6.04
2022-12-14T15:47:40.038Z,-6.13
2022-12-14T15:50:26.226Z,-6.01
2022-12-14T15:53:05.165Z,-5.97
2022-12-14T15:55:36.865Z,-6.02
2022-12-14T15:58:17.270Z,-5.98
2022-12-14T16:00:48.235Z,-5.88
2022-12-14T16:03:26.768Z,-5.65
2022-12-14T16:05:54.687Z,-5.66
2022-12-14T16:08:22.486Z,-5.67
2022-12-14T16:10:51.673Z,-5.66
2022-12-14T16:13:33.647Z,-5.57
2022-12-14T16:16:07.176Z,-5.64
2022-12-14T16:18:34.355Z,-5.52
2022-12-14T16:21:04.085Z,-5.49
2022-12-14T16:23:34.108Z,-5.36
2022-12-14T16:26:20.952Z,-5.46
2022-12-14T16:28:48.025Z,-5.33
2022-12-14T16:31:20.815Z,-5.27
2022-12-14T16:34:05.454Z,-5.30
2022-12-14T16:36:34.712Z,-5.32
2022-12-14T16:39:16.827Z,-5.26
2022-12-14T16:42:05.153Z,-5.32
2022-12-14T16:44:40.734Z,-5.24
2022-12-14T16:47:14.460Z,-5.23
2022-12-14T16:49:52.046Z,-5.22
2022-12-14T16:52:30.483Z,-5.16
2022-12-14T16:55:18.185Z,-5.15
2022-12-14T16:57:47.989Z,-5.19
2022-12-14T17:00:33.611Z,-5.10
2022-12-14T17:03:07.724Z,-5.10
2022-12-14T17:05:42.036Z,-5.06
2022-12-14T17:08:11.687Z,-5.07
2022-12-14T17:10:39.230Z,-5.06
2022-12-14T17:13:05.990Z,-5.04
2022-12-14T17:15:35.196Z,-5.04
2022-12-14T17:18:04.708Z,-5.17
2022-12-14T17:20:36.710Z,-5.06
2022-12-14T17:23:05.706Z,-5.01
2022-12-14T17:25:32.813Z,-4.93
2022-12-14T17:28:00.676Z,-5.03
2022-12-14T17:30:28.486Z,-5.00
2022-12-14T17:32:56.255Z,-5.01
2022-12-14T17:35:50.790Z,-4.93
2022-12-14T17:38:19.939Z,-4.89
2022-12-14T17:40:48.585Z,-4.99
2022-12-14T17:43:26.762Z,-4.99
2022-12-14T17:45:54.642Z,-5.00
2022-12-14T17:48:21.451Z,-4.93
2022-12-14T17:50:50.022Z,-4.90
2022-12-14T17:53:20.902Z,-4.86
2022-12-14T17:55:57.658Z,-4.81
2022-12-14T17:58:24.517Z,-4.81
2022-12-14T18:00:59.986Z,-4.82
2022-12-14T18:03:29.825Z,-4.85
2022-12-14T18:05:58.476Z,-4.94
2022-12-14T18:08:26.715Z,-4.85
2022-12-14T18:11:13.302Z,-4.81
2022-12-14T18:13:41.154Z,-4.90
2022-12-14T18:16:11.577Z,-4.74
2022-12-14T18:18:38.422Z,-4.68
2022-12-14T18:21:15.343Z,-4.75
2022-12-14T18:23:42.837Z,-4.73
2022-12-14T18:26:10.538Z,-4.80
2022-12-14T18:28:42.346Z,-4.79
2022-12-14T18:31:21.342Z,-4.76
2022-12-14T18:33:51.173Z,-4.89
2022-12-14T18:36:21.743Z,-4.97
2022-12-14T18:38:50.540Z,-5.06
2022-12-14T18:41:23.169Z,-5.11
2022-12-14T18:43:51.138Z,-5.07
2022-12-14T18:46:18.939Z,-5.22
2022-12-14T18:48:46.680Z,-5.17
2022-12-14T18:51:23.871Z,-5.21
2022-12-14T18:53:51.755Z,-5.40
2022-12-14T18:56:22.177Z,-5.37
2022-12-14T18:58:50.933Z,-5.38
2022-12-14T19:01:23.713Z,-5.48
2022-12-14T19:03:51.864Z,-5.59
2022-12-14T19:09:09.798Z,-5.50
2022-12-14T19:11:44.929Z,-5.65
2022-12-14T19:14:12.911Z,-5.45
2022-12-14T19:16:40.738Z,-5.58
2022-12-14T19:19:08.392Z,-5.53
2022-12-14T19:21:35.983Z,-5.60
2022-12-14T19:24:04.185Z,-5.71
2022-12-14T19:26:31.600Z,-5.67
2022-12-14T19:28:59.407Z,-5.72
2022-12-14T19:31:27.274Z,-5.86
2022-12-14T19:33:55.002Z,-5.76
2022-12-14T19:36:22.598Z,-5.80
2022-12-14T19:38:50.363Z,-5.62
2022-12-14T19:41:20.417Z,-5.52
2022-12-14T19:43:48.751Z,-5.59
2022-12-14T19:46:18.156Z,-5.68
2022-12-14T19:48:46.055Z,-5.65
2022-12-14T19:51:14.430Z,-5.57
2022-12-14T19:53:43.327Z,-5.72
2022-12-14T19:56:11.293Z,-5.55
2022-12-14T19:58:38.748Z,-5.56
2022-12-14T20:01:11.049Z,-5.57
2022-12-14T20:03:39.302Z,-5.68
2022-12-14T20:06:07.564Z,-5.65
2022-12-14T20:08:36.142Z,-5.63
2022-12-14T20:11:11.290Z,-5.75
2022-12-14T20:13:39.089Z,-5.66
2022-12-14T20:16:06.868Z,-5.74
2022-12-14T20:18:34.771Z,-5.59
2022-12-14T20:21:07.721Z,-5.72
2022-12-14T20:23:37.089Z,-5.66
2022-12-14T20:26:11.319Z,-5.77
2022-12-14T20:28:38.544Z,-5.64
2022-12-14T20:31:10.616Z,-5.83
2022-12-14T20:33:38.966Z,-5.92
2022-12-14T20:36:11.016Z,-5.80
2022-12-14T20:38:38.580Z,-5.75
2022-12-14T20:41:06.800Z,-5.70
2022-12-14T20:43:38.334Z,-5.80
2022-12-14T20:46:06.301Z,-5.69
2022-12-14T20:48:33.329Z,-5.82
2022-12-14T20:51:01.835Z,-5.57
2022-12-14T20:53:31.656Z,-5.55
2022-12-14T20:56:04.749Z,-5.67
2022-12-14T20:58:31.458Z,-5.57
2022-12-14T21:03:51.811Z,-5.61
2022-12-14T21:06:21.134Z,-5.63
2022-12-14T21:09:09.747Z,-5.61
2022-12-14T21:12:06.298Z,-5.65
2022-12-14T21:14:38.686Z,-5.76
2022-12-14T21:17:06.383Z,-5.76
2022-12-14T21:19:33.380Z,-5.80
2022-12-14T21:22:00.109Z,-5.82
2022-12-14T21:27:17.188Z,-5.89
2022-12-14T21:29:44.414Z,-6.01
2022-12-14T21:32:11.515Z,-5.98
2022-12-14T21:34:40.528Z,-6.02
2022-12-14T21:37:07.452Z,-6.01
2022-12-14T21:39:35.090Z,-6.14
2022-12-14T21:42:13.084Z,-6.03
2022-12-14T21:44:45.020Z,-6.21
2022-12-14T21:47:17.274Z,-6.07
2022-12-14T21:49:45.577Z,-6.13
2022-12-14T21:52:15.013Z,-6.17
2022-12-14T21:54:42.576Z,-6.25
2022-12-14T21:57:40.403Z,-6.25
2022-12-14T22:00:09.311Z,-6.43
2022-12-14T22:02:36.206Z,-6.37
2022-12-14T22:07:43.815Z,-6.36
2022-12-14T22:10:10.527Z,-6.38
2022-12-14T22:12:53.383Z,-6.43
2022-12-14T22:15:28.959Z,-6.53
2022-12-14T22:17:55.751Z,-6.49
2022-12-14T22:20:22.586Z,-6.55
2022-12-14T22:22:49.318Z,-6.53
2022-12-14T22:25:16.196Z,-6.55
2022-12-14T22:27:43.078Z,-6.56
2022-12-14T22:30:16.829Z,-6.57
2022-12-14T22:32:43.673Z,-6.60
2022-12-14T22:35:10.438Z,-6.77
2022-12-14T22:37:37.265Z,-6.78
2022-12-14T22:40:06.676Z,-6.80
2022-12-14T22:42:34.384Z,-6.76
2022-12-14T22:45:01.121Z,-6.72
2022-12-14T22:47:28.792Z,-6.78
2022-12-14T22:49:55.528Z,-6.88
2022-12-14T22:52:24.911Z,-6.89
2022-12-14T22:54:54.328Z,-6.91
2022-12-14T22:57:22.565Z,-6.83
2022-12-14T23:00:14.399Z,-6.79
2022-12-14T23:02:45.317Z,-6.90
2022-12-14T23:05:14.590Z,-6.82
2022-12-14T23:07:42.333Z,-6.68
2022-12-14T23:10:28.200Z,-6.57
2022-12-14T23:13:13.501Z,-6.40
2022-12-14T23:15:58.921Z,-6.49
2022-12-14T23:18:44.623Z,-6.54
2022-12-14T23:21:31.590Z,-6.46
2022-12-14T23:24:17.700Z,-6.39
2022-12-14T23:27:09.160Z,-6.27
2022-12-14T23:29:55.661Z,-6.24
2022-12-14T23:32:41.089Z,-6.30
2022-12-14T23:35:28.093Z,-6.33
2022-12-14T23:38:13.553Z,-6.27
2022-12-14T23:40:59.193Z,-6.23
2022-12-14T23:43:44.698Z,-6.20
2022-12-14T23:46:30.092Z,-6.18
2022-12-14T23:49:16.334Z,-6.09
2022-12-14T23:52:02.282Z,-6.12
2022-12-14T23:54:48.055Z,-6.17
2022-12-14T23:57:33.911Z,-6.17
